sensor_id;sensor_type;location;lat;lon;timestamp;P1;durP1;ratioP1;P2;durP2;ratioP2
30466;SDS011;17258;52.560;13.046;2023-01-30T00:07:04;9.43;;;8.67;;
30466;SDS011;17258;52.560;13.046;2023-01-30T00:17:04;10.43;;;9.40;;
30466;SDS011;17258;52.560;13.046;2023-01-30T00:27:05;13.40;;;11.23;;
30466;SDS011;17258;52.560;13.046;2023-01-30T00:37:06;10.83;;;9.83;;
30466;SDS011;17258;52.560;13.046;2023-01-30T00:47:06;13.60;;;9.80;;
30466;SDS011;17258;52.560;13.046;2023-01-30T00:57:08;13.25;;;12.05;;
30466;SDS011;17258;52.560;13.046;2023-01-30T01:07:09;12.57;;;10.40;;
30466;SDS011;17258;52.560;13.046;2023-01-30T01:17:13;11.73;;;10.52;;
30466;SDS011;17258;52.560;13.046;2023-01-30T01:27:13;11.83;;;9.03;;
30466;SDS011;17258;52.560;13.046;2023-01-30T01:37:14;12.37;;;10.77;;
30466;SDS011;17258;52.560;13.046;2023-01-30T01:47:17;12.90;;;11.68;;
30466;SDS011;17258;52.560;13.046;2023-01-30T01:57:19;13.38;;;11.88;;
30466;SDS011;17258;52.560;13.046;2023-01-30T02:07:39;14.23;;;12.90;;
30466;SDS011;17258;52.560;13.046;2023-01-30T02:18:04;13.05;;;11.07;;
30466;SDS011;17258;52.560;13.046;2023-01-30T02:28:13;14.38;;;12.38;;
30466;SDS011;17258;52.560;13.046;2023-01-30T02:39:07;15.80;;;14.13;;
30466;SDS011;17258;52.560;13.046;2023-01-30T02:49:47;16.13;;;14.43;;
30466;SDS011;17258;52.560;13.046;2023-01-30T02:59:55;14.43;;;13.10;;
30466;SDS011;17258;52.560;13.046;2023-01-30T03:10:05;15.15;;;13.65;;
30466;SDS011;17258;52.560;13.046;2023-01-30T03:20:35;15.38;;;13.88;;
30466;SDS011;17258;52.560;13.046;2023-01-30T03:30:38;14.77;;;12.60;;
30466;SDS011;17258;52.560;13.046;2023-01-30T03:40:38;16.10;;;13.83;;
30466;SDS011;17258;52.560;13.046;2023-01-30T03:50:39;25.13;;;13.90;;
30466;SDS011;17258;52.560;13.046;2023-01-30T04:00:40;13.57;;;12.27;;
30466;SDS011;17258;52.560;13.046;2023-01-30T04:10:40;17.70;;;12.17;;
30466;SDS011;17258;52.560;13.046;2023-01-30T04:20:41;14.57;;;13.03;;
30466;SDS011;17258;52.560;13.046;2023-01-30T04:30:41;13.40;;;10.77;;
30466;SDS011;17258;52.560;13.046;2023-01-30T04:40:46;13.00;;;11.80;;
30466;SDS011;17258;52.560;13.046;2023-01-30T04:50:48;12.35;;;10.93;;
30466;SDS011;17258;52.560;13.046;2023-01-30T05:00:51;13.25;;;11.88;;
30466;SDS011;17258;52.560;13.046;2023-01-30T05:10:51;13.43;;;12.03;;
30466;SDS011;17258;52.560;13.046;2023-01-30T05:20:52;14.03;;;10.80;;
30466;SDS011;17258;52.560;13.046;2023-01-30T05:30:53;13.60;;;10.70;;
30466;SDS011;17258;52.560;13.046;2023-01-30T05:41:00;9.52;;;8.57;;
30466;SDS011;17258;52.560;13.046;2023-01-30T05:51:13;10.55;;;9.43;;
30466;SDS011;17258;52.560;13.046;2023-01-30T06:01:20;10.05;;;8.18;;
30466;SDS011;17258;52.560;13.046;2023-01-30T06:11:22;11.68;;;9.20;;
30466;SDS011;17258;52.560;13.046;2023-01-30T06:21:23;9.13;;;8.23;;
30466;SDS011;17258;52.560;13.046;2023-01-30T06:31:24;7.87;;;7.10;;
30466;SDS011;17258;52.560;13.046;2023-01-30T06:41:24;9.90;;;8.27;;
30466;SDS011;17258;52.560;13.046;2023-01-30T06:51:25;7.37;;;6.67;;
30466;SDS011;17258;52.560;13.046;2023-01-30T07:01:26;6.22;;;5.70;;
30466;SDS011;17258;52.560;13.046;2023-01-30T07:11:28;6.03;;;5.35;;
30466;SDS011;17258;52.560;13.046;2023-01-30T07:21:30;5.63;;;5.10;;
30466;SDS011;17258;52.560;13.046;2023-01-30T07:31:30;5.50;;;5.03;;
30466;SDS011;17258;52.560;13.046;2023-01-30T07:41:31;5.07;;;4.67;;
30466;SDS011;17258;52.560;13.046;2023-01-30T07:51:32;5.63;;;5.13;;
30466;SDS011;17258;52.560;13.046;2023-01-30T08:01:32;5.07;;;4.57;;
30466;SDS011;17258;52.560;13.046;2023-01-30T08:11:33;5.03;;;4.40;;
30466;SDS011;17258;52.560;13.046;2023-01-30T08:21:34;3.92;;;3.60;;
30466;SDS011;17258;52.560;13.046;2023-01-30T08:31:34;3.53;;;3.23;;
30466;SDS011;17258;52.560;13.046;2023-01-30T08:41:35;3.27;;;3.07;;
30466;SDS011;17258;52.560;13.046;2023-01-30T08:51:36;2.23;;;2.00;;
30466;SDS011;17258;52.560;13.046;2023-01-30T09:01:37;1.98;;;1.77;;
30466;SDS011;17258;52.560;13.046;2023-01-30T09:11:37;1.60;;;1.50;;
30466;SDS011;17258;52.560;13.046;2023-01-30T09:21:38;1.47;;;1.37;;
30466;SDS011;17258;52.560;13.046;2023-01-30T09:31:39;4.50;;;1.70;;
30466;SDS011;17258;52.560;13.046;2023-01-30T09:41:52;1.95;;;1.33;;
30466;SDS011;17258;52.560;13.046;2023-01-30T10:03:10;4.50;;;1.95;;
30466;SDS011;17258;52.560;13.046;2023-01-30T10:13:26;5.18;;;1.83;;
30466;SDS011;17258;52.560;13.046;2023-01-30T10:23:56;10.10;;;2.33;;
30466;SDS011;17258;52.560;13.046;2023-01-30T10:34:08;6.95;;;2.67;;
30466;SDS011;17258;52.560;13.046;2023-01-30T10:44:19;6.25;;;2.30;;
30466;SDS011;17258;52.560;13.046;2023-01-30T11:04:43;9.48;;;3.15;;
30466;SDS011;17258;52.560;13.046;2023-01-30T11:14:56;4.70;;;2.73;;
30466;SDS011;17258;52.560;13.046;2023-01-30T11:25:00;7.45;;;3.13;;
30466;SDS011;17258;52.560;13.046;2023-01-30T11:45:12;5.70;;;2.25;;
30466;SDS011;17258;52.560;13.046;2023-01-30T11:55:14;6.10;;;2.10;;
30466;SDS011;17258;52.560;13.046;2023-01-30T12:05:51;9.88;;;2.55;;
30466;SDS011;17258;52.560;13.046;2023-01-30T12:15:47;7.47;;;3.37;;
30466;SDS011;17258;52.560;13.046;2023-01-30T12:46:38;7.45;;;2.97;;
30466;SDS011;17258;52.560;13.046;2023-01-30T12:56:59;4.75;;;2.33;;
30466;SDS011;17258;52.560;13.046;2023-01-30T13:07:23;9.65;;;2.42;;
30466;SDS011;17258;52.560;13.046;2023-01-30T13:28:15;7.72;;;2.33;;
30466;SDS011;17258;52.560;13.046;2023-01-30T13:38:20;4.85;;;2.15;;
30466;SDS011;17258;52.560;13.046;2023-01-30T13:48:44;5.63;;;2.25;;
30466;SDS011;17258;52.560;13.046;2023-01-30T13:58:58;8.68;;;2.58;;
30466;SDS011;17258;52.560;13.046;2023-01-30T14:09:19;1.80;;;0.90;;
30466;SDS011;17258;52.560;13.046;2023-01-30T14:19:29;0.60;;;0.60;;
30466;SDS011;17258;52.560;13.046;2023-01-30T14:39:38;0.63;;;0.63;;
30466;SDS011;17258;52.560;13.046;2023-01-30T14:49:48;17.25;;;1.33;;
30466;SDS011;17258;52.560;13.046;2023-01-30T14:59:56;2.28;;;1.23;;
30466;SDS011;17258;52.560;13.046;2023-01-30T15:21:02;2.60;;;1.08;;
30466;SDS011;17258;52.560;13.046;2023-01-30T15:31:30;7.28;;;1.55;;
30466;SDS011;17258;52.560;13.046;2023-01-30T15:41:32;8.30;;;1.53;;
30466;SDS011;17258;52.560;13.046;2023-01-30T15:51:38;3.80;;;1.90;;
30466;SDS011;17258;52.560;13.046;2023-01-30T16:01:39;7.07;;;2.75;;
30466;SDS011;17258;52.560;13.046;2023-01-30T16:11:40;6.20;;;2.07;;
30466;SDS011;17258;52.560;13.046;2023-01-30T16:21:43;4.35;;;2.50;;
30466;SDS011;17258;52.560;13.046;2023-01-30T16:31:46;7.80;;;2.40;;
30466;SDS011;17258;52.560;13.046;2023-01-30T16:41:55;6.00;;;2.58;;
30466;SDS011;17258;52.560;13.046;2023-01-30T16:51:58;7.93;;;3.10;;
30466;SDS011;17258;52.560;13.046;2023-01-30T17:02:23;4.13;;;2.47;;
30466;SDS011;17258;52.560;13.046;2023-01-30T17:12:41;5.90;;;1.77;;
30466;SDS011;17258;52.560;13.046;2023-01-30T17:22:43;6.88;;;2.65;;
30466;SDS011;17258;52.560;13.046;2023-01-30T17:32:46;6.93;;;2.75;;
30466;SDS011;17258;52.560;13.046;2023-01-30T17:42:49;15.27;;;3.05;;
30466;SDS011;17258;52.560;13.046;2023-01-30T17:52:50;8.43;;;3.20;;
30466;SDS011;17258;52.560;13.046;2023-01-30T18:02:50;11.60;;;3.23;;
30466;SDS011;17258;52.560;13.046;2023-01-30T18:12:52;7.72;;;3.28;;
30466;SDS011;17258;52.560;13.046;2023-01-30T18:22:53;10.17;;;3.60;;
30466;SDS011;17258;52.560;13.046;2023-01-30T18:32:53;7.80;;;3.10;;
30466;SDS011;17258;52.560;13.046;2023-01-30T18:42:54;8.73;;;3.67;;
30466;SDS011;17258;52.560;13.046;2023-01-30T18:52:54;10.10;;;3.73;;
30466;SDS011;17258;52.560;13.046;2023-01-30T19:02:56;12.80;;;4.03;;
30466;SDS011;17258;52.560;13.046;2023-01-30T19:12:57;7.68;;;4.25;;
30466;SDS011;17258;52.560;13.046;2023-01-30T19:23:16;15.60;;;4.35;;
30466;SDS011;17258;52.560;13.046;2023-01-30T19:33:17;17.20;;;5.00;;
30466;SDS011;17258;52.560;13.046;2023-01-30T19:43:19;8.90;;;3.92;;
30466;SDS011;17258;52.560;13.046;2023-01-30T19:53:20;12.40;;;4.00;;
30466;SDS011;17258;52.560;13.046;2023-01-30T20:03:20;16.83;;;4.27;;
30466;SDS011;17258;52.560;13.046;2023-01-30T20:13:21;7.33;;;3.37;;
30466;SDS011;17258;52.560;13.046;2023-01-30T20:23:22;8.40;;;2.43;;
30466;SDS011;17258;52.560;13.046;2023-01-30T20:33:22;4.65;;;2.28;;
30466;SDS011;17258;52.560;13.046;2023-01-30T20:43:23;3.75;;;1.67;;
30466;SDS011;17258;52.560;13.046;2023-01-30T20:53:24;5.87;;;2.47;;
30466;SDS011;17258;52.560;13.046;2023-01-30T21:03:25;9.43;;;2.53;;
30466;SDS011;17258;52.560;13.046;2023-01-30T21:13:25;6.13;;;1.90;;
30466;SDS011;17258;52.560;13.046;2023-01-30T21:23:26;11.23;;;2.13;;
30466;SDS011;17258;52.560;13.046;2023-01-30T21:33:28;2.88;;;1.73;;
30466;SDS011;17258;52.560;13.046;2023-01-30T21:43:28;3.43;;;1.97;;
30466;SDS011;17258;52.560;13.046;2023-01-30T21:53:29;4.27;;;2.63;;
30466;SDS011;17258;52.560;13.046;2023-01-30T22:03:33;6.38;;;2.33;;
30466;SDS011;17258;52.560;13.046;2023-01-30T22:13:35;6.28;;;2.10;;
30466;SDS011;17258;52.560;13.046;2023-01-30T22:23:37;12.93;;;2.55;;
30466;SDS011;17258;52.560;13.046;2023-01-30T22:33:44;7.30;;;2.78;;
30466;SDS011;17258;52.560;13.046;2023-01-30T22:43:47;10.27;;;3.45;;
30466;SDS011;17258;52.560;13.046;2023-01-30T22:53:51;6.45;;;2.15;;
30466;SDS011;17258;52.560;13.046;2023-01-30T23:04:01;25.77;;;3.25;;
30466;SDS011;17258;52.560;13.046;2023-01-30T23:14:12;9.63;;;3.35;;
30466;SDS011;17258;52.560;13.046;2023-01-30T23:24:16;8.10;;;3.00;;
30466;SDS011;17258;52.560;13.046;2023-01-30T23:34:19;11.63;;;2.72;;
30466;SDS011;17258;52.560;13.046;2023-01-30T23:44:19;7.20;;;3.30;;
30466;SDS011;17258;52.560;13.046;2023-01-30T23:54:20;7.88;;;3.05;;
